Time;durP1;ratioP1;P1;durP2;ratioP2;P2;SDS_P1;SDS_P2;PMS_P1;PMS_P2;Temp;Humidity;BMP_temperature;BMP_pressure;BME280_temperature;BME280_humidity;BME280_pressure;Samples;Min_cycle;Max_cycle;Signal;HPM_P1;HPM_P2
2022/08/07 00:00:54;;;;;;;;;;;;;;;;;;4856941;29;20056;-73
2022/08/07 00:03:27;;;;;;;5.97;2.20;;;;;;;;;;4856541;29;19966;-73
2022/08/07 00:06:05;;;;;;;7.25;2.67;;;;;;;;;;4856171;29;20053;-76
2022/08/07 00:08:36;;;;;;;6.47;2.53;;;;;;;;;;4855869;29;20056;-73
2022/08/07 00:11:12;;;;;;;5.25;2.38;;;;;;;;;;4865838;29;20049;-72
2022/08/07 00:13:57;;;;;;;7.70;2.55;;;;;;;;;;4859125;29;20513;-73
2022/08/07 00:16:29;;;;;;;8.98;2.45;;;;;;;;;;4864757;29;20049;-73
2022/08/07 00:19:00;;;;;;;8.73;3.25;;;;;;;;;;4862763;29;20058;-73
2022/08/07 00:21:33;;;;;;;8.05;2.72;;;;;;;;;;4863471;29;20058;-75
2022/08/07 00:24:23;;;;;;;6.82;3.70;;;;;;;;;;4857333;29;20057;-73
2022/08/07 00:26:52;;;;;;;;;;;;;;;;;;4856037;29;20399;-73
2022/08/07 00:29:35;;;;;;;6.97;2.55;;;;;;;;;;4856821;29;19924;-73
2022/08/07 00:32:06;;;;;;;7.10;2.65;;;;;;;;;;4856337;29;20413;-73
2022/08/07 00:34:36;;;;;;;6.93;2.80;;;;;;;;;;4855828;29;20056;-73
2022/08/07 00:37:07;;;;;;;10.98;2.92;;;;;;;;;;4854824;29;20069;-74
2022/08/07 00:39:38;;;;;;;8.15;2.42;;;;;;;;;;4854036;29;20057;-73
2022/08/07 00:42:13;;;;;;;7.35;3.10;;;;;;;;;;4855708;29;20053;-71
2022/08/07 00:44:44;;;;;;;8.90;2.60;;;;;;;;;;4854685;29;20061;-72
2022/08/07 00:47:15;;;;;;;9.05;2.95;;;;;;;;;;4855692;29;20061;-72
2022/08/07 00:50:06;;;;;;;5.70;2.25;;;;;;;;;;4855215;29;20905;-73
2022/08/07 00:52:57;;;;;;;6.05;2.70;;;;;;;;;;4855672;29;20045;-76
2022/08/07 00:55:31;;;;;;;12.75;3.50;;;;;;;;;;4854776;29;20080;-73
2022/08/07 00:58:21;;;;;;;9.55;3.15;;;;;;;;;;4854723;29;20065;-73
2022/08/07 01:00:51;;;;;;;6.90;3.25;;;;;;;;;;4855366;29;20497;-73
2022/08/07 01:03:21;;;;;;;6.80;2.80;;;;;;;;;;4853688;29;20050;-73
2022/08/07 01:06:13;;;;;;;12.20;4.85;;;;;;;;;;4855485;29;20060;-74
2022/08/07 01:08:46;;;;;;;9.13;3.22;;;;;;;;;;4854530;29;20431;-73
2022/08/07 01:11:21;;;;;;;8.48;3.05;;;;;;;;;;4854047;29;20064;-73
2022/08/07 01:14:11;;;;;;;6.80;3.67;;;;;;;;;;4854996;29;20053;-73
2022/08/07 01:16:44;;;;;;;6.90;3.10;;;;;;;;;;4854682;29;20057;-72
2022/08/07 01:19:20;;;;;;;7.25;3.10;;;;;;;;;;4854162;29;20058;-72
2022/08/07 01:21:54;;;;;;;7.55;3.25;;;;;;;;;;4853666;29;20054;-74
2022/08/07 01:24:28;;;;;;;10.00;3.42;;;;;;;;;;4854939;29;20045;-73
2022/08/07 01:27:00;;;;;;;10.38;3.60;;;;;;;;;;4854959;29;20381;-72
2022/08/07 01:29:33;;;;;;;7.80;3.20;;;;;;;;;;4853887;29;20076;-72
2022/08/07 01:32:04;;;;;;;6.15;3.35;;;;;;;;;;4853449;29;20063;-72
2022/08/07 01:34:45;;;;;;;16.95;3.40;;;;;;;;;;4853434;29;20064;-72
2022/08/07 01:37:17;;;;;;;10.65;2.65;;;;;;;;;;4854827;29;20053;-73
2022/08/07 01:39:50;;;;;;;6.95;2.63;;;;;;;;;;4853384;29;20061;-73
2022/08/07 01:42:29;;;;;;;8.05;2.90;;;;;;;;;;4853883;29;20054;-73
2022/08/07 01:45:20;;;;;;;10.82;4.65;;;;;;;;;;4853971;29;20567;-73
2022/08/07 01:48:05;;;;;;;7.20;3.17;;;;;;;;;;4854030;29;20521;-73
2022/08/07 01:50:59;;;;;;;6.88;3.22;;;;;;;;;;4855209;29;20437;-73
2022/08/07 01:53:56;;;;;;;13.00;3.53;;;;;;;;;;4854600;29;20435;-73
2022/08/07 01:57:01;;;;;;;13.73;3.97;;;;;;;;;;4853430;29;20532;-73
2022/08/07 01:59:45;;;;;;;8.95;3.33;;;;;;;;;;4853768;29;20372;-74
2022/08/07 02:02:26;;;;;;;9.18;3.55;;;;;;;;;;4854177;29;20520;-73
2022/08/07 02:05:51;;;;;;;11.93;3.45;;;;;;;;;;4854706;29;20061;-73
2022/08/07 02:08:39;;;;;;;8.43;3.47;;;;;;;;;;4830713;29;20066;-72
2022/08/07 02:11:10;;;;;;;;;;;;;;;;;;4854348;29;20057;-76
2022/08/07 02:14:06;;;;;;;9.43;3.17;;;;;;;;;;4852800;29;19928;-72
2022/08/07 02:16:38;;;;;;;7.45;2.97;;;;;;;;;;4854469;29;20053;-74
2022/08/07 02:19:12;;;;;;;8.00;3.50;;;;;;;;;;4852896;29;20064;-72
2022/08/07 02:22:03;;;;;;;8.18;3.10;;;;;;;;;;4853620;29;20057;-72
2022/08/07 02:24:36;;;;;;;8.95;3.17;;;;;;;;;;4853285;29;20080;-73
2022/08/07 02:27:18;;;;;;;8.35;2.95;;;;;;;;;;4853042;29;20057;-72
2022/08/07 02:29:53;;;;;;;7.40;3.13;;;;;;;;;;4853069;29;20054;-73
2022/08/07 02:32:32;;;;;;;4.97;2.63;;;;;;;;;;4853681;29;20529;-72
2022/08/07 02:35:06;;;;;;;6.88;2.50;;;;;;;;;;4854634;29;20060;-72
2022/08/07 02:37:40;;;;;;;5.88;2.45;;;;;;;;;;4852961;29;20058;-73
2022/08/07 02:40:13;;;;;;;7.68;2.60;;;;;;;;;;4857060;29;20062;-72
2022/08/07 02:43:04;;;;;;;9.20;2.17;;;;;;;;;;4856576;29;20050;-73
2022/08/07 02:45:39;;;;;;;9.98;2.70;;;;;;;;;;4856597;29;20569;-77
2022/08/07 02:48:32;;;;;;;3.88;2.22;;;;;;;;;;4857526;29;20061;-73
2022/08/07 02:51:10;;;;;;;7.65;2.33;;;;;;;;;;4856773;29;20061;-72
2022/08/07 02:54:04;;;;;;;6.22;2.65;;;;;;;;;;4857084;29;20062;-72
2022/08/07 02:56:37;;;;;;;9.15;2.28;;;;;;;;;;4856385;29;20053;-73
2022/08/07 02:59:10;;;;;;;8.57;3.20;;;;;;;;;;4857472;29;20054;-72
2022/08/07 03:01:42;;;;;;;5.82;2.20;;;;;;;;;;4856985;29;20053;-72
2022/08/07 03:04:18;;;;;;;5.90;2.45;;;;;;;;;;4857108;29;20072;-74
2022/08/07 03:06:49;;;;;;;3.53;2.30;;;;;;;;;;4857376;29;20062;-74
2022/08/07 03:09:21;;;;;;;2.80;2.00;;;;;;;;;;4856597;29;20057;-73
2022/08/07 03:12:14;;;;;;;8.13;2.97;;;;;;;;;;4856300;29;20069;-72
2022/08/07 03:15:07;;;;;;;8.57;2.22;;;;;;;;;;4856381;29;20521;-72
2022/08/07 03:17:41;;;;;;;6.53;2.80;;;;;;;;;;4856823;29;20062;-73
2022/08/07 03:20:26;;;;;;;6.20;2.80;;;;;;;;;;4856630;29;20068;-74
2022/08/07 03:22:57;;;;;;;6.55;2.53;;;;;;;;;;4857898;29;20072;-73
2022/08/07 03:25:32;;;;;;;5.18;2.35;;;;;;;;;;4856834;29;20064;-72
2022/08/07 03:28:15;;;;;;;10.55;2.92;;;;;;;;;;4856312;29;20057;-73
2022/08/07 03:31:18;;;;;;;5.68;2.80;;;;;;;;;;4855816;29;20061;-73
2022/08/07 03:34:11;;;;;;;7.25;2.78;;;;;;;;;;4856102;29;20092;-73
2022/08/07 03:36:58;;;;;;;6.05;2.75;;;;;;;;;;4855988;29;20068;-73
2022/08/07 03:39:46;;;;;;;9.77;2.90;;;;;;;;;;4842932;29;20057;-73
2022/08/07 03:42:37;;;;;;;4.80;2.45;;;;;;;;;;4856151;29;20068;-73
2022/08/07 03:45:10;;;;;;;6.55;3.00;;;;;;;;;;4856229;29;20064;-73
2022/08/07 03:48:03;;;;;;;4.82;2.42;;;;;;;;;;4855845;29;20057;-73
2022/08/07 03:50:40;;;;;;;5.25;2.70;;;;;;;;;;4855910;29;20053;-73
2022/08/07 03:53:24;;;;;;;8.77;2.88;;;;;;;;;;4855755;29;20054;-76
2022/08/07 03:56:22;;;;;;;7.10;2.47;;;;;;;;;;4855783;29;20062;-73
2022/08/07 03:59:05;;;;;;;5.32;2.70;;;;;;;;;;4855713;29;20061;-73
2022/08/07 04:01:46;;;;;;;6.68;3.25;;;;;;;;;;4856265;29;20513;-73
2022/08/07 04:04:21;;;;;;;4.10;2.42;;;;;;;;;;4855305;29;20433;-73
2022/08/07 04:06:57;;;;;;;4.82;2.50;;;;;;;;;;4855656;29;20058;-73
2022/08/07 04:09:30;;;;;;;6.97;2.53;;;;;;;;;;4854976;29;20050;-73
2022/08/07 04:12:23;;;;;;;6.78;2.45;;;;;;;;;;4855662;29;20068;-73
2022/08/07 04:14:58;;;;;;;3.85;2.42;;;;;;;;;;4855334;29;20390;-74
2022/08/07 04:17:32;;;;;;;6.03;2.58;;;;;;;;;;4855162;29;20049;-74
2022/08/07 04:20:23;;;;;;;5.97;2.97;;;;;;;;;;4855056;29;20061;-73
2022/08/07 04:22:54;;;;;;;5.35;2.72;;;;;;;;;;4855716;29;20054;-74
2022/08/07 04:25:38;;;;;;;5.55;2.20;;;;;;;;;;4855341;29;20054;-73
2022/08/07 04:28:12;;;;;;;7.68;2.03;;;;;;;;;;4855075;29;20057;-74
2022/08/07 04:30:48;;;;;;;4.72;2.22;;;;;;;;;;4854804;29;20605;-74
2022/08/07 04:33:30;;;;;;;5.60;2.42;;;;;;;;;;4854996;29;20060;-74
2022/08/07 04:36:04;;;;;;;6.65;2.53;;;;;;;;;;4854632;29;20060;-73
2022/08/07 04:38:37;;;;;;;4.88;2.60;;;;;;;;;;4855035;29;20642;-73
2022/08/07 04:41:09;;;;;;;4.68;2.65;;;;;;;;;;4854635;29;20086;-73
2022/08/07 04:43:52;;;;;;;6.97;2.08;;;;;;;;;;4854959;29;20057;-72
2022/08/07 04:47:12;;;;;;;4.43;2.45;;;;;;;;;;4854843;29;20088;-72
2022/08/07 04:50:21;;;;;;;4.20;2.15;;;;;;;;;;4854622;29;20115;-72
2022/08/07 04:53:21;;;;;;;8.98;2.40;;;;;;;;;;4856012;29;20056;-73
2022/08/07 04:56:32;;;;;;;5.57;2.13;;;;;;;;;;4856156;29;20429;-73
2022/08/07 04:59:45;;;;;;;5.70;2.20;;;;;;;;;;4854719;29;20064;-73
2022/08/07 05:02:44;;;;;;;3.63;2.38;;;;;;;;;;4854465;29;20068;-73
2022/08/07 05:05:44;;;;;;;5.13;2.15;;;;;;;;;;4855392;29;20053;-73
2022/08/07 05:08:33;;;;;;;5.78;2.47;;;;;;;;;;4853928;29;20497;-73
2022/08/07 05:11:29;;;;;;;4.22;2.47;;;;;;;;;;4854723;29;20065;-73
2022/08/07 05:14:42;;;;;;;6.95;2.50;;;;;;;;;;4855738;29;20054;-73
2022/08/07 05:17:30;;;;;;;6.40;2.80;;;;;;;;;;4854019;29;20053;-73
2022/08/07 05:20:25;;;;;;;4.72;1.75;;;;;;;;;;4853931;29;20063;-73
2022/08/07 05:23:08;;;;;;;5.43;2.40;;;;;;;;;;4839560;29;20050;-73
2022/08/07 05:25:48;;;;;;;7.85;3.00;;;;;;;;;;4854694;29;20064;-73
2022/08/07 05:28:39;;;;;;;5.03;2.78;;;;;;;;;;4854146;29;20057;-73
2022/08/07 05:31:22;;;;;;;4.60;2.63;;;;;;;;;;4854212;29;20072;-73
2022/08/07 05:34:11;;;;;;;4.82;2.45;;;;;;;;;;4854101;29;20053;-74
2022/08/07 05:36:50;;;;;;;5.10;2.38;;;;;;;;;;4853837;29;20069;-74
2022/08/07 05:39:27;;;;;;;3.90;2.70;;;;;;;;;;4853323;29;20513;-74
2022/08/07 05:42:17;;;;;;;6.88;3.22;;;;;;;;;;4853706;29;20072;-74
2022/08/07 05:45:02;;;;;;;7.70;2.78;;;;;;;;;;4853864;29;20054;-74
2022/08/07 05:47:53;;;;;;;7.40;3.17;;;;;;;;;;4854112;29;20516;-74
2022/08/07 05:50:44;;;;;;;8.18;2.40;;;;;;;;;;4853776;29;20061;-74
2022/08/07 05:53:17;;;;;;;8.80;2.63;;;;;;;;;;4853343;29;20068;-73
2022/08/07 05:56:14;;;;;;;6.03;2.70;;;;;;;;;;4853808;29;20433;-72
2022/08/07 05:58:50;;;;;;;6.22;2.80;;;;;;;;;;4853376;29;20053;-72
2022/08/07 06:01:26;;;;;;;8.65;3.03;;;;;;;;;;4854199;29;20536;-72
2022/08/07 06:04:08;;;;;;;5.10;2.80;;;;;;;;;;4854009;29;20062;-72
2022/08/07 06:06:41;;;;;;;5.93;2.83;;;;;;;;;;4854265;29;20057;-73
2022/08/07 06:09:17;;;;;;;;;;;;;;;;;;4854012;29;20525;-73
2022/08/07 06:11:49;;;;;;;7.38;2.90;;;;;;;;;;4852739;29;19931;-73
2022/08/07 06:14:22;;;;;;;13.20;2.92;;;;;;;;;;4853321;29;20068;-73
2022/08/07 06:17:02;;;;;;;4.45;2.67;;;;;;;;;;4853190;29;20053;-72
2022/08/07 06:19:41;;;;;;;9.15;3.33;;;;;;;;;;4853559;29;20057;-72
2022/08/07 06:22:32;;;;;;;6.70;3.05;;;;;;;;;;4854033;29;20061;-72
2022/08/07 06:25:20;;;;;;;6.65;3.20;;;;;;;;;;4853428;29;20061;-72
2022/08/07 06:27:51;;;;;;;7.13;3.22;;;;;;;;;;4854123;29;20718;-72
2022/08/07 06:30:33;;;;;;;6.20;3.45;;;;;;;;;;4853261;29;20053;-72
2022/08/07 06:33:18;;;;;;;4.22;2.63;;;;;;;;;;4853580;29;20061;-72
2022/08/07 06:35:52;;;;;;;7.00;3.83;;;;;;;;;;4853565;29;20077;-72
2022/08/07 06:38:49;;;;;;;8.98;4.80;;;;;;;;;;4853236;29;20061;-72
2022/08/07 06:41:44;;;;;;;12.02;4.60;;;;;;;;;;4854238;29;20049;-72
2022/08/07 06:45:12;;;;;;;10.07;4.07;;;;;;;;;;4815399;29;20054;-72
2022/08/07 06:47:53;;;;;;;10.88;4.40;;;;;;;;;;4851732;29;20069;-72
2022/08/07 06:50:35;;;;;;;8.00;4.38;;;;;;;;;;4853003;29;20050;-72
2022/08/07 06:53:13;;;;;;;8.10;4.57;;;;;;;;;;4853679;29;20054;-73
2022/08/07 06:56:08;;;;;;;8.68;4.47;;;;;;;;;;4852983;29;20072;-73
2022/08/07 06:58:49;;;;;;;8.55;4.75;;;;;;;;;;4853458;29;20059;-73
2022/08/07 07:01:44;;;;;;;8.02;4.93;;;;;;;;;;4853063;29;20050;-73
2022/08/07 07:04:19;;;;;;;10.70;5.03;;;;;;;;;;4852883;29;20053;-73
2022/08/07 07:07:06;;;;;;;10.38;4.75;;;;;;;;;;4852963;29;20069;-73
2022/08/07 07:09:48;;;;;;;8.50;4.28;;;;;;;;;;4853960;29;20064;-74
2022/08/07 07:12:36;;;;;;;21.02;4.55;;;;;;;;;;4852818;29;20367;-73
2022/08/07 07:15:22;;;;;;;7.68;3.40;;;;;;;;;;4854241;29;20060;-73
2022/08/07 07:18:27;;;;;;;6.13;3.20;;;;;;;;;;4853855;29;20046;-73
2022/08/07 07:21:24;;;;;;;13.30;3.65;;;;;;;;;;4853866;29;20057;-73
2022/08/07 07:24:15;;;;;;;9.32;3.40;;;;;;;;;;4853862;29;20061;-73
2022/08/07 07:26:48;;;;;;;7.70;3.70;;;;;;;;;;4856821;29;20077;-72
2022/08/07 07:29:27;;;;;;;5.43;3.35;;;;;;;;;;4857290;29;20046;-72
2022/08/07 07:32:19;;;;;;;7.68;3.22;;;;;;;;;;4857402;29;20053;-72
2022/08/07 07:34:54;;;;;;;9.00;4.03;;;;;;;;;;4857909;29;20045;-72
2022/08/07 07:37:27;;;;;;;8.90;3.50;;;;;;;;;;4856728;29;20532;-72
2022/08/07 07:40:20;;;;;;;6.97;3.60;;;;;;;;;;4857405;29;20437;-73
2022/08/07 07:42:55;;;;;;;7.18;3.70;;;;;;;;;;4857407;29;20058;-72
2022/08/07 07:45:40;;;;;;;7.63;3.92;;;;;;;;;;4856834;29;20528;-72
2022/08/07 07:48:31;;;;;;;6.07;3.80;;;;;;;;;;4857022;29;20057;-72
2022/08/07 07:51:05;;;;;;;8.13;3.40;;;;;;;;;;4856751;29;20554;-72
2022/08/07 07:53:40;;;;;;;6.10;3.03;;;;;;;;;;4857350;29;20057;-72
2022/08/07 07:56:24;;;;;;;6.88;3.25;;;;;;;;;;4856695;29;20045;-72
2022/08/07 07:59:03;;;;;;;4.45;3.15;;;;;;;;;;4856302;29;20057;-72
2022/08/07 08:01:37;;;;;;;5.95;3.10;;;;;;;;;;4856989;29;20076;-72
2022/08/07 08:04:29;;;;;;;7.65;3.55;;;;;;;;;;4856233;29;20061;-73
2022/08/07 08:07:02;;;;;;;5.07;3.50;;;;;;;;;;4856688;29;20064;-72
2022/08/07 08:09:37;;;;;;;6.05;3.53;;;;;;;;;;4856704;29;20050;-72
2022/08/07 08:12:29;;;;;;;5.95;3.33;;;;;;;;;;4856755;29;20060;-72
2022/08/07 08:15:19;;;;;;;6.75;3.03;;;;;;;;;;4856998;29;20517;-72
2022/08/07 08:17:51;;;;;;;6.38;3.50;;;;;;;;;;4856079;29;20049;-72
2022/08/07 08:20:30;;;;;;;9.90;3.42;;;;;;;;;;4856192;29;20057;-72
2022/08/07 08:28:52;;;;;;;6.45;3.20;;;;;;;;;;4856359;29;20051;-73
2022/08/07 08:31:29;;;;;;;6.70;3.25;;;;;;;;;;4856275;29;20505;-72
2022/08/07 08:34:32;;;;;;;5.85;3.28;;;;;;;;;;4856673;29;20062;-72
2022/08/07 08:37:05;;;;;;;5.30;3.33;;;;;;;;;;4856471;29;20098;-72
2022/08/07 08:39:56;;;;;;;6.25;3.92;;;;;;;;;;4854502;29;20066;-72
2022/08/07 08:42:56;;;;;;;7.25;3.42;;;;;;;;;;4855717;29;20050;-72
2022/08/07 08:45:38;;;;;;;6.82;3.45;;;;;;;;;;4836415;29;20059;-72
2022/08/07 08:48:36;;;;;;;4.78;3.28;;;;;;;;;;4855927;29;20052;-72
2022/08/07 08:51:18;;;;;;;9.63;3.50;;;;;;;;;;4855736;29;20489;-72
2022/08/07 08:54:47;;;;;;;6.57;3.10;;;;;;;;;;4855860;29;20435;-72
2022/08/07 08:57:39;;;;;;;5.15;2.97;;;;;;;;;;4855266;29;20056;-72
2022/08/07 09:00:11;;;;;;;4.88;2.97;;;;;;;;;;4855536;29;20634;-73
2022/08/07 09:02:59;;;;;;;10.45;3.50;;;;;;;;;;4855791;29;20053;-73
2022/08/07 09:06:20;;;;;;;7.05;3.13;;;;;;;;;;4855003;29;20583;-73
2022/08/07 09:09:08;;;;;;;8.00;3.10;;;;;;;;;;4853973;29;20080;-73
2022/08/07 09:12:04;;;;;;;8.25;3.38;;;;;;;;;;4854222;29;20068;-72
2022/08/07 09:15:20;;;;;;;9.70;4.43;;;;;;;;;;4855232;29;20050;-72
2022/08/07 09:18:29;;;;;;;6.90;3.55;;;;;;;;;;4855232;29;20045;-72
2022/08/07 09:21:32;;;;;;;5.75;3.70;;;;;;;;;;4856114;29;20064;-72
2022/08/07 09:24:24;;;;;;;8.32;3.58;;;;;;;;;;4855582;29;20057;-73
2022/08/07 09:27:33;;;;;;;6.18;3.67;;;;;;;;;;4855260;29;20104;-73
2022/08/07 09:30:26;;;;;;;7.05;3.95;;;;;;;;;;4855145;29;20061;-73
2022/08/07 09:33:14;;;;;;;10.48;4.15;;;;;;;;;;4854801;29;20045;-73
2022/08/07 09:36:14;;;;;;;10.02;4.00;;;;;;;;;;4854868;29;20046;-73
2022/08/07 09:38:50;;;;;;;6.68;4.13;;;;;;;;;;4855735;29;20041;-73
2022/08/07 09:41:36;;;;;;;6.47;4.47;;;;;;;;;;4855529;29;20052;-76
2022/08/07 09:45:07;;;;;;;8.10;4.15;;;;;;;;;;4853806;29;20068;-73
2022/08/07 09:48:20;;;;;;;9.82;4.13;;;;;;;;;;4853215;29;20088;-73
2022/08/07 09:51:12;;;;;;;9.68;4.20;;;;;;;;;;4854804;29;20053;-74
2022/08/07 09:54:05;;;;;;;9.40;4.28;;;;;;;;;;4855265;29;20064;-73
2022/08/07 09:57:00;;;;;;;12.38;6.90;;;;;;;;;;4854732;29;20398;-73
2022/08/07 10:00:07;;;;;;;15.48;7.55;;;;;;;;;;4853866;29;20413;-74
2022/08/07 10:03:07;;;;;;;8.00;5.18;;;;;;;;;;4855101;29;20064;-73
2022/08/07 10:06:09;;;;;;;8.68;5.50;;;;;;;;;;4854578;29;20053;-73
2022/08/07 10:09:04;;;;;;;9.65;5.85;;;;;;;;;;4854673;29;20049;-73
2022/08/07 10:11:57;;;;;;;9.70;5.00;;;;;;;;;;4854709;29;20492;-73
2022/08/07 10:14:48;;;;;;;10.73;5.10;;;;;;;;;;4854888;29;20557;-73
2022/08/07 10:17:25;;;;;;;12.45;6.03;;;;;;;;;;4854853;29;20056;-73
2022/08/07 10:20:27;;;;;;;8.65;4.97;;;;;;;;;;4855051;29;20057;-72
2022/08/07 10:23:24;;;;;;;10.75;4.55;;;;;;;;;;4854211;29;20077;-72
2022/08/07 10:26:32;;;;;;;9.80;4.22;;;;;;;;;;4854543;29;20524;-72
2022/08/07 10:29:24;;;;;;;9.60;5.10;;;;;;;;;;4854374;29;20049;-73
2022/08/07 10:32:29;;;;;;;12.10;4.97;;;;;;;;;;4854553;29;20050;-72
2022/08/07 10:35:28;;;;;;;9.07;4.90;;;;;;;;;;4854480;29;20053;-72
2022/08/07 10:38:32;;;;;;;13.38;4.82;;;;;;;;;;4854356;29;20054;-74
2022/08/07 10:41:42;;;;;;;8.88;5.07;;;;;;;;;;4854027;29;20064;-74
2022/08/07 10:44:26;;;;;;;9.88;5.55;;;;;;;;;;4854082;29;20521;-75
2022/08/07 10:47:22;;;;;;;10.93;6.15;;;;;;;;;;4854688;29;20048;-72
2022/08/07 10:50:23;;;;;;;17.20;13.95;;;;;;;;;;4854244;29;20064;-73
2022/08/07 10:53:25;;;;;;;8.35;4.97;;;;;;;;;;4837087;29;20405;-71
2022/08/07 10:56:43;;;;;;;14.23;6.75;;;;;;;;;;4831981;29;20417;-73
2022/08/07 10:59:37;;;;;;;10.68;5.68;;;;;;;;;;4855618;29;20057;-72
2022/08/07 11:02:32;;;;;;;12.45;5.07;;;;;;;;;;4858339;29;20061;-72
2022/08/07 11:05:36;;;;;;;8.55;4.80;;;;;;;;;;4857692;29;20053;-73
2022/08/07 11:08:42;;;;;;;12.57;5.60;;;;;;;;;;4857516;29;20049;-73
2022/08/07 11:11:35;;;;;;;9.35;4.80;;;;;;;;;;4857877;29;20049;-73
2022/08/07 11:14:39;;;;;;;9.18;4.78;;;;;;;;;;4857870;29;20065;-72
2022/08/07 11:17:49;;;;;;;12.05;5.68;;;;;;;;;;4857371;29;20054;-73
2022/08/07 11:20:21;;;;;;;7.80;4.57;;;;;;;;;;4857141;29;20049;-72
2022/08/07 11:23:06;;;;;;;7.88;4.18;;;;;;;;;;4857246;29;20045;-72
2022/08/07 11:25:43;;;;;;;9.10;5.07;;;;;;;;;;4857573;29;20053;-72
2022/08/07 11:28:35;;;;;;;7.57;4.82;;;;;;;;;;4857432;29;20417;-72
2022/08/07 11:31:33;;;;;;;8.30;4.93;;;;;;;;;;4857275;29;20054;-72
2022/08/07 11:34:27;;;;;;;11.73;5.13;;;;;;;;;;4857430;29;20065;-73
2022/08/07 11:37:12;;;;;;;10.30;5.45;;;;;;;;;;4856704;29;20524;-73
2022/08/07 11:40:08;;;;;;;9.23;5.13;;;;;;;;;;4857296;29;20077;-73
2022/08/07 11:43:13;;;;;;;7.32;4.90;;;;;;;;;;4857197;29;20045;-73
2022/08/07 11:46:07;;;;;;;7.85;4.80;;;;;;;;;;4836653;29;20058;-73
2022/08/07 11:49:01;;;;;;;9.63;4.90;;;;;;;;;;4855724;29;20084;-73
2022/08/07 11:52:03;;;;;;;10.32;5.80;;;;;;;;;;4855829;29;20437;-73
2022/08/07 11:54:57;;;;;;;8.93;4.97;;;;;;;;;;4856985;29;20076;-73
2022/08/07 11:57:33;;;;;;;7.75;4.80;;;;;;;;;;4856609;29;20409;-73
2022/08/07 12:00:44;;;;;;;10.02;6.07;;;;;;;;;;4857089;29;20053;-74
2022/08/07 12:03:52;;;;;;;11.48;5.20;;;;;;;;;;4856911;29;20045;-74
2022/08/07 12:06:28;;;;;;;9.15;5.25;;;;;;;;;;4856844;29;20060;-74
2022/08/07 12:09:41;;;;;;;7.35;4.78;;;;;;;;;;4855920;29;20517;-74
2022/08/07 12:12:25;;;;;;;11.55;5.78;;;;;;;;;;4855579;29;20052;-74
2022/08/07 12:15:04;;;;;;;7.72;4.63;;;;;;;;;;4856580;29;20069;-74
2022/08/07 12:18:26;;;;;;;9.30;5.00;;;;;;;;;;4856891;29;20053;-74
2022/08/07 12:21:30;;;;;;;7.78;4.05;;;;;;;;;;4851386;29;20062;-73
2022/08/07 12:28:17;;;;;;;8.45;4.53;;;;;;;;;;4851076;29;20394;-74
2022/08/07 12:31:06;;;;;;;9.68;5.15;;;;;;;;;;4856023;29;20054;-73
2022/08/07 12:33:37;;;;;;;9.40;4.47;;;;;;;;;;4856313;29;20045;-74
2022/08/07 12:36:29;;;;;;;7.80;4.63;;;;;;;;;;4856230;29;20052;-73
2022/08/07 12:39:06;;;;;;;7.85;4.15;;;;;;;;;;4856204;29;20057;-76
2022/08/07 12:41:58;;;;;;;7.07;3.92;;;;;;;;;;4856011;29;20525;-74
2022/08/07 12:44:33;;;;;;;8.15;3.80;;;;;;;;;;4855649;29;20064;-73
2022/08/07 12:47:35;;;;;;;9.93;3.83;;;;;;;;;;4855840;29;20045;-74
2022/08/07 12:50:20;;;;;;;6.85;3.35;;;;;;;;;;4856062;29;20049;-74
2022/08/07 12:53:16;;;;;;;13.88;3.95;;;;;;;;;;4855149;29;20057;-76
2022/08/07 12:56:08;;;;;;;5.85;2.45;;;;;;;;;;4855809;29;20045;-73
2022/08/07 12:58:44;;;;;;;4.63;2.75;;;;;;;;;;4855862;29;20064;-74
2022/08/07 13:01:25;;;;;;;12.68;3.70;;;;;;;;;;4853948;29;20076;-74
2022/08/07 13:04:12;;;;;;;5.40;3.05;;;;;;;;;;4855552;29;20056;-75
2022/08/07 13:07:14;;;;;;;4.95;2.75;;;;;;;;;;4854641;29;20057;-75
2022/08/07 13:10:15;;;;;;;3.92;2.85;;;;;;;;;;4854098;29;20060;-75
2022/08/07 13:13:43;;;;;;;7.75;5.13;;;;;;;;;;4855546;29;20073;-76
2022/08/07 13:16:28;;;;;;;12.75;4.20;;;;;;;;;;4855578;29;20049;-77
2022/08/07 13:19:22;;;;;;;5.82;3.10;;;;;;;;;;4855260;29;20053;-75
2022/08/07 13:22:19;;;;;;;9.60;3.45;;;;;;;;;;4854580;29;20045;-75
2022/08/07 13:25:11;;;;;;;9.23;3.35;;;;;;;;;;4855057;29;20053;-75
2022/08/07 13:28:23;;;;;;;6.95;3.60;;;;;;;;;;4854472;29;20045;-75
2022/08/07 13:31:28;;;;;;;8.82;3.88;;;;;;;;;;4853137;29;20072;-76
2022/08/07 13:34:50;;;;;;;6.40;3.80;;;;;;;;;;4855089;29;20061;-76
2022/08/07 13:37:45;;;;;;;8.23;3.70;;;;;;;;;;4854140;29;20148;-76
2022/08/07 13:40:42;;;;;;;7.43;3.58;;;;;;;;;;4853500;29;20072;-76
2022/08/07 13:43:14;;;;;;;6.22;3.40;;;;;;;;;;4854915;29;20056;-77
2022/08/07 13:45:54;;;;;;;6.45;3.70;;;;;;;;;;4855392;29;20437;-75
2022/08/07 13:48:48;;;;;;;10.20;4.65;;;;;;;;;;4855346;29;20131;-77
2022/08/07 13:51:28;;;;;;;7.60;3.70;;;;;;;;;;4855027;29;20057;-76
2022/08/07 13:54:27;;;;;;;6.15;3.33;;;;;;;;;;4854896;29;20060;-78
2022/08/07 13:57:08;;;;;;;8.45;3.33;;;;;;;;;;4854535;29;20060;-76
2022/08/07 13:59:51;;;;;;;6.45;3.53;;;;;;;;;;4855108;29;20054;-76
2022/08/07 14:02:34;;;;;;;7.55;3.47;;;;;;;;;;4855068;29;20124;-76
2022/08/07 14:05:24;;;;;;;4.82;3.10;;;;;;;;;;4855071;29;20513;-76
2022/08/07 14:08:08;;;;;;;7.63;3.58;;;;;;;;;;4853670;29;20050;-77
2022/08/07 14:10:41;;;;;;;6.78;3.42;;;;;;;;;;4854073;29;20489;-76
2022/08/07 14:13:30;;;;;;;5.10;3.08;;;;;;;;;;4852470;29;20060;-76
2022/08/07 14:16:07;;;;;;;7.32;3.28;;;;;;;;;;4853022;29;20049;-76
2022/08/07 14:18:52;;;;;;;9.43;3.70;;;;;;;;;;4852156;29;20053;-76
2022/08/07 14:21:31;;;;;;;5.65;3.05;;;;;;;;;;4852758;29;20045;-78
2022/08/07 14:24:36;;;;;;;2.58;2.00;;;;;;;;;;4852856;29;20057;-75
2022/08/07 14:27:12;;;;;;;5.88;2.30;;;;;;;;;;4854729;29;20058;-75
2022/08/07 14:30:10;;;;;;;4.47;1.85;;;;;;;;;;4854698;29;20064;-75
2022/08/07 14:32:47;;;;;;;3.08;1.75;;;;;;;;;;4854029;29;20544;-75
2022/08/07 14:35:34;;;;;;;2.83;1.75;;;;;;;;;;4856818;29;20076;-77
2022/08/07 14:38:14;;;;;;;2.63;1.52;;;;;;;;;;4858173;29;20052;-74
2022/08/07 14:41:05;;;;;;;2.28;1.58;;;;;;;;;;4858681;29;20065;-75
2022/08/07 14:43:45;;;;;;;2.25;1.50;;;;;;;;;;4858362;29;20060;-74
2022/08/07 14:46:37;;;;;;;5.25;1.70;;;;;;;;;;4858216;29;20053;-74
2022/08/07 14:49:34;;;;;;;4.45;1.80;;;;;;;;;;4857512;29;20049;-77
2022/08/07 14:52:26;;;;;;;2.60;1.52;;;;;;;;;;4857961;29;20045;-76
2022/08/07 14:55:00;;;;;;;3.13;1.70;;;;;;;;;;4857656;29;20505;-77
2022/08/07 14:57:32;;;;;;;1.33;1.13;;;;;;;;;;4857882;29;20054;-78
2022/08/07 15:00:29;;;;;;;2.83;1.50;;;;;;;;;;4857781;29;20053;-75
2022/08/07 15:03:05;;;;;;;2.42;1.50;;;;;;;;;;4857977;29;20058;-75
2022/08/07 15:05:50;;;;;;;;;;;;;;;;;;4858008;29;20515;-76
2022/08/07 15:08:45;;;;;;;1.83;1.33;;;;;;;;;;4857327;29;19935;-76
2022/08/07 15:11:42;;;;;;;2.78;1.40;;;;;;;;;;4857465;29;20050;-75
2022/08/07 15:14:35;;;;;;;1.80;1.30;;;;;;;;;;4857270;29;20406;-75
2022/08/07 15:17:31;;;;;;;2.45;1.65;;;;;;;;;;4856008;29;20050;-76
2022/08/07 15:20:25;;;;;;;2.03;1.58;;;;;;;;;;4856879;29;20060;-76
2022/08/07 15:23:08;;;;;;;5.57;2.25;;;;;;;;;;4857008;29;20088;-76
2022/08/07 15:25:55;;;;;;;3.03;2.22;;;;;;;;;;4857013;29;20544;-76
2022/08/07 15:28:28;;;;;;;3.53;2.28;;;;;;;;;;4856531;29;20053;-76
2022/08/07 15:31:13;;;;;;;2.33;1.63;;;;;;;;;;4856619;29;20060;-76
2022/08/07 15:34:04;;;;;;;3.03;1.60;;;;;;;;;;4857210;29;20808;-77
2022/08/07 15:36:46;;;;;;;2.28;1.90;;;;;;;;;;4856823;29;20052;-75
2022/08/07 15:39:40;;;;;;;2.70;1.67;;;;;;;;;;4857052;29;20064;-75
2022/08/07 15:42:49;;;;;;;2.97;1.73;;;;;;;;;;4857036;29;20057;-76
2022/08/07 15:45:23;;;;;;;2.72;1.95;;;;;;;;;;4856537;29;20061;-75
2022/08/07 15:48:25;;;;;;;2.03;1.42;;;;;;;;;;4856680;29;20060;-75
2022/08/07 15:51:09;;;;;;;2.38;1.80;;;;;;;;;;4856840;29;20057;-75
2022/08/07 15:53:55;;;;;;;3.58;2.03;;;;;;;;;;4856539;29;20064;-75
2022/08/07 15:56:36;;;;;;;2.45;1.73;;;;;;;;;;4859130;29;20045;-75
2022/08/07 15:59:14;;;;;;;3.80;1.73;;;;;;;;;;4873063;29;20041;-75
2022/08/07 16:01:53;;;;;;;3.00;1.75;;;;;;;;;;4873384;29;20048;-76
2022/08/07 16:04:34;;;;;;;3.38;2.15;;;;;;;;;;4875874;29;20064;-76
2022/08/07 16:07:11;;;;;;;2.50;2.00;;;;;;;;;;4875449;29;20045;-76
2022/08/07 16:10:17;;;;;;;3.13;2.03;;;;;;;;;;4875862;29;20060;-76
2022/08/07 16:13:09;;;;;;;2.80;2.13;;;;;;;;;;4874817;29;20041;-74
2022/08/07 16:16:22;;;;;;;2.42;2.00;;;;;;;;;;4875182;29;20048;-76
2022/08/07 16:19:47;;;;;;;3.80;2.13;;;;;;;;;;4874617;29;20052;-75
2022/08/07 16:22:58;;;;;;;3.45;2.05;;;;;;;;;;4874532;29;20045;-75
2022/08/07 16:25:59;;;;;;;3.33;2.03;;;;;;;;;;4874561;29;20052;-73
2022/08/07 16:28:49;;;;;;;4.28;2.25;;;;;;;;;;4874638;29;20045;-75
2022/08/07 16:32:21;;;;;;;3.45;2.30;;;;;;;;;;4874674;29;20053;-75
2022/08/07 16:35:47;;;;;;;3.80;1.95;;;;;;;;;;4835251;29;20058;-76
2022/08/07 16:38:42;;;;;;;3.97;2.70;;;;;;;;;;4762815;30;20070;-75
2022/08/07 16:42:14;;;;;;;3.85;2.25;;;;;;;;;;4780585;30;20067;-79
2022/08/07 16:45:11;;;;;;;3.30;2.00;;;;;;;;;;4826652;29;20064;-75
2022/08/07 16:48:35;;;;;;;2.80;1.80;;;;;;;;;;4872969;29;20517;-77
2022/08/07 16:51:44;;;;;;;3.40;2.38;;;;;;;;;;4874007;29;20055;-75
2022/08/07 16:54:47;;;;;;;3.03;2.10;;;;;;;;;;4875086;29;20524;-76
2022/08/07 16:57:45;;;;;;;4.05;2.78;;;;;;;;;;4875771;29;20057;-75